| Date | Time | Temp. (oF) | Dew Point (oF) | Rel. Hum. (%) | Press. (in.) | Wind Dir. (deg.) | Wind Speed (mph) | Hourly Rainfall (i n.) |
|
|---|---|---|---|---|---|---|---|---|---|
| 1 | 06/06 | 24:00 | 62 | 47 | 60 | 30.45 | 130 | 2 | 0.00 |
| 2 | 06/05 | 23:00 | 64 | 46 | 54 | 30.44 | 130 | 2 | 0.00 |
| 3 | 06/05 | 22:00 | 66 | 45 | 47 | 30.45 | 130 | 4 | 0.00 |
| 4 | 06/05 | 21:00 | 68 | 45 | 44 | 30.44 | 170 | 6 | 0.00 |
| 5 | 06/05 | 20:00 | 71 | 45 | 40 | 30.43 | 150 | 2 | 0.00 |
| 6 | 06/05 | 19:00 | 75 | 48 | 40 | 30.44 | 190 | 6 | 0.00 |
| 7 | 06/05 | 18:00 | 77 | 49 | 38 | 30.46 | 150 | 6 | 0.00 |
| 8 | 06/05 | 17:00 | 78 | 50 | 38 | 30.48 | 130 | 6 | 0.00 |
| 9 | 06/05 | 16:00 | 78 | 50 | 38 | 30.46 | 130 | 2 | 0.00 |
| 10 | 06/05 | 15:00 | 79 | 48 | 35 | 30.44 | 120 | 7 | 0.00 |
| 11 | 06/05 | 14:00 | 80 | 50 | 36 | 30.41 | 300 | 4 | 0.00 |
| 12 | 06/05 | 13:00 | 78 | 50 | 38 | 30.41 | 170 | 9 | 0.00 |
| 13 | 06/05 | 12:00 | 76 | 51 | 43 | 30.40 | 140 | 7 | 0.00 |
| 14 | 06/05 | 11:00 | 74 | 55 | 52 | 30.44 | 110 | 7 | 0.00 |
| 15 | 06/05 | 10:00 | 69 | 57 | 66 | 30.40 | 150 | 1 | 0.00 |
| 16 | 06/05 | 09:00 | 61 | 55 | 83 | 30.43 | 140 | 1 | 0.00 |
| 17 | 06/05 | 08:00 | 56 | 51 | 86 | 30.41 | 100 | 0 | 0.00 |
| 18 | 06/05 | 07:00 | 53 | 49 | 87 | 30.40 | 100 | 0 | 0.00 |
| 19 | 06/05 | 06:00 | 52 | 47 | 86 | 30.39 | 100 | 0 | 0.00 |
| 20 | 06/05 | 05:00 | 53 | 48 | 84 | 30.37 | 280 | 0 | 0.00 |
| 21 | 06/05 | 04:00 | 54 | 48 | 83 | 30.35 | 280 | 0 | 0.00 |
| 22 | 06/05 | 03:00 | 55 | 49 | 81 | 30.35 | 280 | 0 | 0.00 |
| 23 | 06/05 | 02:00 | 56 | 49 | 79 | 30.34 | 280 | 0 | 0.00 |
| 24 | 06/05 | 01:00 | 57 | 49 | 77 | 30.33 | 280 | 0 | 0.00 |